Frankford, Canada
Current Conditions -  °F | °C
As of 3:00 PM on Saturday 25 Oct 2014 (Local Time) from CYTR Reporting Station
Rain Showers Rain Showers  
Wind Chill: 59°   Ceiling: 3300
Heat Index: 59°   Visibility: 12mi
Dew Point: 54°   Wind: 16mph
Humidity: 82%   Direction: 260°W
Pressure: 29.54"   Gusts: NA
Location:  44.2°N, 77.6°W
Report Text: CYTR 251900Z 26014KT 12SM -SHRA BKN033 OVC057 15/12 A2954 RMK SC6SC2 SLP004
Loading
Personal Weather Stations






























Interactive Weather Map
Tropical Storm Tracking
New forecast layout! Learn more

10-Day Weather Forecast

Advertisements
Track Severe Weather on mobile